Time;durP1;ratioP1;P1;durP2;ratioP2;P2;SDS_P1;SDS_P2;PMS_P1;PMS_P2;Temp;Humidity;BMP_temperature;BMP_pressure;BME280_temperature;BME280_humidity;BME280_pressure;Samples;Min_cycle;Max_cycle;Signal;HPM_P1;HPM_P2
2024/04/14 00:04:09;;;;;;;0.30;0.30;;;16.30;92.50;;;;;;11163107;26;20248;-77
2024/04/14 00:09:13;;;;;;;0.30;0.30;;;16.30;92.50;;;;;;11123856;26;20669;-77
2024/04/14 00:14:18;;;;;;;0.30;0.30;;;16.30;92.30;;;;;;11105774;26;20243;-77
2024/04/14 00:19:24;;;;;;;0.40;0.40;;;16.30;92.00;;;;;;11144027;26;20721;-78
2024/04/14 00:24:28;;;;;;;0.30;0.30;;;16.30;91.70;;;;;;11161183;26;20316;-79
2024/04/14 00:29:32;;;;;;;0.40;0.40;;;16.30;91.80;;;;;;11167048;26;20259;-79
2024/04/14 00:34:39;;;;;;;0.30;0.30;;;16.30;91.60;;;;;;11096799;26;20321;-77
2024/04/14 00:39:44;;;;;;;0.30;0.30;;;16.30;91.60;;;;;;11126141;26;20227;-78
2024/04/14 00:44:48;;;;;;;0.40;0.40;;;16.30;91.70;;;;;;11124660;26;20326;-77
2024/04/14 00:49:54;;;;;;;0.40;0.40;;;16.30;91.80;;;;;;11144156;26;20730;-78
2024/04/14 00:54:59;;;;;;;0.40;0.40;;;16.30;91.60;;;;;;11149491;26;20235;-79
2024/04/14 01:00:05;;;;;;;0.40;0.40;;;16.30;90.50;;;;;;11103736;26;20236;-79
2024/04/14 01:05:12;;;;;;;0.30;0.30;;;16.30;90.50;;;;;;11143491;26;20235;-79
2024/04/14 01:10:16;;;;;;;0.40;0.40;;;16.30;90.40;;;;;;11128846;26;20654;-76
2024/04/14 01:15:20;;;;;;;0.40;0.40;;;16.30;90.40;;;;;;11169406;26;20332;-77
2024/04/14 01:20:27;;;;;;;0.40;0.40;;;16.30;90.50;;;;;;11150255;26;20709;-78
2024/04/14 01:25:33;;;;;;;0.40;0.40;;;16.30;90.50;;;;;;11141012;26;20248;-78
2024/04/14 01:30:38;;;;;;;0.40;0.40;;;16.20;90.50;;;;;;11153229;26;20233;-78
2024/04/14 01:35:42;;;;;;;0.40;0.40;;;16.20;90.30;;;;;;11169762;26;20287;-77
2024/04/14 01:40:48;;;;;;;0.40;0.40;;;16.20;90.40;;;;;;11144264;26;20237;-78
2024/04/14 01:45:52;;;;;;;0.47;0.47;;;16.20;90.50;;;;;;11124242;26;20243;-79
2024/04/14 01:50:56;;;;;;;0.30;0.30;;;16.10;90.30;;;;;;11137217;26;20335;-77
2024/04/14 01:56:03;;;;;;;0.60;0.60;;;16.10;90.20;;;;;;11168171;26;20274;-78
2024/04/14 02:01:07;;;;;;;0.60;0.60;;;16.10;90.00;;;;;;11141913;26;20341;-79
2024/04/14 02:06:11;;;;;;;0.70;0.70;;;16.10;90.20;;;;;;11166406;26;20275;-77
2024/04/14 02:11:17;;;;;;;0.60;0.60;;;16.10;90.20;;;;;;11144300;26;20237;-79
2024/04/14 02:16:21;;;;;;;0.67;0.67;;;16.10;90.20;;;;;;11176270;26;20302;-78
2024/04/14 02:21:25;;;;;;;0.60;0.60;;;16.10;90.10;;;;;;11164763;26;20235;-80
2024/04/14 02:26:32;;;;;;;0.60;0.60;;;16.10;90.10;;;;;;11150702;26;20279;-79
2024/04/14 02:31:36;;;;;;;0.60;0.60;;;16.00;90.10;;;;;;11145356;26;20331;-77
2024/04/14 02:36:40;;;;;;;0.60;0.60;;;16.00;90.10;;;;;;11124395;26;20236;-78
2024/04/14 02:41:46;;;;;;;0.50;0.50;;;15.90;90.20;;;;;;11172481;26;20231;-79
2024/04/14 02:46:50;;;;;;;0.77;0.77;;;15.90;90.20;;;;;;11119890;26;20317;-80
2024/04/14 02:51:54;;;;;;;0.63;0.63;;;15.90;90.40;;;;;;11172709;26;20261;-78
2024/04/14 02:57:01;;;;;;;0.70;0.70;;;15.80;90.30;;;;;;11159133;26;20247;-79
2024/04/14 03:02:05;;;;;;;0.60;0.60;;;15.80;90.20;;;;;;11157786;26;20270;-78
2024/04/14 03:07:09;;;;;;;0.70;0.70;;;15.80;90.20;;;;;;11161173;26;20282;-78
2024/04/14 03:12:18;;;;;;;0.80;0.80;;;15.80;90.00;;;;;;11149282;26;20273;-78
2024/04/14 03:17:25;;;;;;;0.90;0.90;;;15.80;90.00;;;;;;11121038;26;20277;-79
2024/04/14 03:22:29;;;;;;;0.70;0.70;;;15.70;90.00;;;;;;11127489;26;20244;-78
2024/04/14 03:27:36;;;;;;;0.90;0.90;;;15.70;90.10;;;;;;11130860;26;20652;-78
2024/04/14 03:32:40;;;;;;;0.80;0.80;;;15.70;90.20;;;;;;11168135;26;20708;-79
2024/04/14 03:37:44;;;;;;;0.80;0.80;;;15.70;90.20;;;;;;11158142;26;20228;-78
2024/04/14 03:42:51;;;;;;;0.80;0.80;;;15.70;90.30;;;;;;11131400;26;20263;-78
2024/04/14 03:47:55;;;;;;;0.80;0.80;;;15.60;90.20;;;;;;11138100;26;20659;-79
2024/04/14 03:52:59;;;;;;;0.70;0.70;;;15.60;90.20;;;;;;11147146;26;20231;-79
2024/04/14 03:58:05;;;;;;;0.90;0.90;;;15.60;90.20;;;;;;11141948;26;20239;-78
2024/04/14 04:03:11;;;;;;;0.90;0.90;;;15.60;90.20;;;;;;11152018;26;20339;-80
2024/04/14 04:08:15;;;;;;;0.93;0.93;;;15.60;90.00;;;;;;11188921;26;20242;-79
2024/04/14 04:13:22;;;;;;;0.70;0.70;;;15.60;90.00;;;;;;11157695;26;20830;-79
2024/04/14 04:18:26;;;;;;;0.80;0.80;;;15.60;90.00;;;;;;11145645;26;20609;-80
2024/04/14 04:23:30;;;;;;;0.70;0.70;;;15.60;90.00;;;;;;11104227;26;20240;-79
2024/04/14 04:28:37;;;;;;;0.80;0.80;;;15.60;90.00;;;;;;11159588;26;20231;-77
2024/04/14 04:33:41;;;;;;;0.70;0.70;;;15.60;89.90;;;;;;11151412;26;20244;-79
2024/04/14 04:38:45;;;;;;;1.07;1.07;;;15.60;89.60;;;;;;11126515;26;20264;-79
2024/04/14 04:43:52;;;;;;;0.80;0.80;;;15.60;89.40;;;;;;11168918;26;20336;-79
2024/04/14 04:48:56;;;;;;;0.90;0.90;;;15.60;89.50;;;;;;11133283;26;20245;-78
2024/04/14 04:54:00;;;;;;;0.70;0.70;;;15.60;89.70;;;;;;11144201;26;20244;-79
2024/04/14 04:59:06;;;;;;;0.70;0.70;;;15.60;89.90;;;;;;11174371;26;20240;-79
2024/04/14 05:04:11;;;;;;;0.90;0.90;;;15.60;90.10;;;;;;11161175;26;20278;-79
2024/04/14 05:09:15;;;;;;;1.10;1.10;;;15.50;90.20;;;;;;11137696;26;20240;-80
2024/04/14 05:14:23;;;;;;;0.70;0.70;;;15.50;90.30;;;;;;11170347;26;20236;-79
2024/04/14 05:19:26;;;;;;;0.90;0.90;;;15.50;90.50;;;;;;11102881;26;20244;-79
2024/04/14 05:24:31;;;;;;;0.90;0.90;;;15.50;90.60;;;;;;11117437;26;20679;-78
2024/04/14 05:29:37;;;;;;;0.80;0.80;;;15.40;90.80;;;;;;11184833;26;20239;-80
2024/04/14 05:34:41;;;;;;;0.80;0.80;;;15.50;91.00;;;;;;11143685;26;20275;-79
2024/04/14 05:39:45;;;;;;;0.70;0.70;;;15.60;91.20;;;;;;11130505;26;20262;-78
2024/04/14 05:44:53;;;;;;;0.80;0.80;;;15.60;91.30;;;;;;11137750;26;20246;-80
2024/04/14 05:49:57;;;;;;;0.77;0.77;;;15.70;91.60;;;;;;11128425;26;20296;-78
2024/04/14 05:55:02;;;;;;;0.90;0.90;;;15.90;91.90;;;;;;11127620;26;20256;-79
2024/04/14 06:00:10;;;;;;;0.90;0.90;;;16.00;92.40;;;;;;11167058;26;20231;-77
2024/04/14 06:05:20;;;;;;;0.90;0.90;;;16.10;92.30;;;;;;11171552;26;20806;-78
2024/04/14 06:10:24;;;;;;;1.10;1.10;;;16.20;92.40;;;;;;11165168;26;20239;-80
2024/04/14 06:15:31;;;;;;;1.07;1.07;;;16.30;92.80;;;;;;11140711;26;20265;-80
2024/04/14 06:20:37;;;;;;;1.10;1.10;;;16.30;92.40;;;;;;11108107;26;20244;-78
2024/04/14 06:25:41;;;;;;;1.30;1.30;;;16.40;92.60;;;;;;11131798;26;20337;-78
2024/04/14 06:30:48;;;;;;;1.10;1.10;;;16.50;93.10;;;;;;11134790;26;20265;-79
2024/04/14 06:35:54;;;;;;;0.90;0.90;;;16.60;93.10;;;;;;11160355;26;20239;-79
2024/04/14 06:40:58;;;;;;;0.80;0.80;;;16.70;93.40;;;;;;11122713;26;20240;-78
2024/04/14 06:46:05;;;;;;;1.17;1.17;;;16.80;93.60;;;;;;11134926;26;20329;-79
2024/04/14 06:51:09;;;;;;;0.80;0.80;;;16.80;93.60;;;;;;11101482;26;20243;-80
2024/04/14 06:56:13;;;;;;;0.87;0.87;;;16.90;93.80;;;;;;11141939;26;20241;-78
2024/04/14 07:01:20;;;;;;;0.70;0.70;;;17.10;93.90;;;;;;11151298;26;20240;-79
2024/04/14 07:06:24;;;;;;;0.70;0.70;;;17.20;93.90;;;;;;11117108;26;20236;-79
2024/04/14 07:11:28;;;;;;;0.80;0.80;;;17.30;94.30;;;;;;11138095;26;20236;-77
2024/04/14 07:16:35;;;;;;;0.80;0.80;;;17.40;94.60;;;;;;11093257;26;20245;-78
2024/04/14 07:21:39;;;;;;;0.80;0.80;;;17.50;95.10;;;;;;11180303;26;20266;-79
2024/04/14 07:26:43;;;;;;;0.80;0.80;;;17.50;94.80;;;;;;11179777;26;20662;-79
2024/04/14 07:31:50;;;;;;;0.60;0.60;;;17.60;95.20;;;;;;11168126;26;20266;-79
2024/04/14 07:36:56;;;;;;;0.60;0.60;;;17.70;95.00;;;;;;11143036;26;20270;-80
2024/04/14 07:42:02;;;;;;;0.63;0.63;;;17.80;95.30;;;;;;11130098;26;20336;-76
2024/04/14 07:47:08;;;;;;;0.70;0.70;;;17.90;95.50;;;;;;11126806;26;20686;-79
2024/04/14 07:52:12;;;;;;;0.60;0.60;;;18.10;95.80;;;;;;11173759;26;20572;-80
2024/04/14 07:57:16;;;;;;;0.60;0.60;;;18.20;95.60;;;;;;11132395;26;20249;-78
2024/04/14 08:02:23;;;;;;;0.80;0.80;;;18.40;95.50;;;;;;11174384;26;20269;-76
2024/04/14 08:07:27;;;;;;;0.80;0.80;;;18.70;95.60;;;;;;11120994;26;20278;-77
2024/04/14 08:12:31;;;;;;;0.77;0.77;;;18.90;95.30;;;;;;11132010;26;20647;-78
2024/04/14 08:17:37;;;;;;;0.80;0.80;;;19.10;95.00;;;;;;11128171;26;20319;-78
2024/04/14 08:22:41;;;;;;;0.80;0.80;;;19.30;94.40;;;;;;11166078;26;20235;-80
2024/04/14 08:27:45;;;;;;;0.77;0.77;;;19.50;93.60;;;;;;11137440;26;20288;-78
2024/04/14 08:32:52;;;;;;;0.90;0.90;;;19.70;92.30;;;;;;11162916;26;20236;-76
2024/04/14 08:37:56;;;;;;;0.70;0.70;;;20.00;90.80;;;;;;11144424;26;20349;-78
2024/04/14 08:43:00;;;;;;;1.00;1.00;;;20.30;88.90;;;;;;11149843;26;20728;-77
2024/04/14 08:48:09;;;;;;;0.70;0.70;;;20.50;90.20;;;;;;11162591;26;20300;-77
2024/04/14 08:53:17;;;;;;;0.80;0.80;;;20.70;89.90;;;;;;11169965;26;20244;-77
2024/04/14 08:58:22;;;;;;;0.80;0.80;;;20.80;90.30;;;;;;11171167;26;20231;-77
2024/04/14 09:03:30;;;;;;;0.80;0.80;;;21.00;89.50;;;;;;11141986;26;20247;-77
2024/04/14 09:08:34;;;;;;;0.90;0.90;;;21.10;88.90;;;;;;11137711;26;20232;-79
2024/04/14 09:13:38;;;;;;;1.10;1.10;;;21.20;89.00;;;;;;11126191;26;20605;-77
2024/04/14 09:18:44;;;;;;;0.90;0.90;;;21.20;89.60;;;;;;11160534;26;20958;-79
2024/04/14 09:23:51;;;;;;;1.00;1.00;;;21.30;89.70;;;;;;11096485;26;20725;-80
2024/04/14 09:29:04;;;;;;;1.00;1.00;;;21.40;88.50;;;;;;11118761;26;20638;-79
2024/04/14 09:34:10;;;;;;;0.80;0.80;;;21.60;87.50;;;;;;11112655;26;20248;-80
2024/04/14 09:39:14;;;;;;;0.80;0.80;;;21.80;88.00;;;;;;11136450;26;20801;-80
2024/04/14 09:44:20;;;;;;;0.80;0.80;;;21.90;88.20;;;;;;11120805;26;20240;-80
2024/04/14 09:49:29;;;;;;;0.80;0.80;;;22.10;87.80;;;;;;11095510;26;20244;-80
2024/04/14 09:54:33;;;;;;;0.80;0.80;;;22.50;85.70;;;;;;11129522;26;20248;-77
2024/04/14 09:59:37;;;;;;;0.90;0.90;;;22.80;86.50;;;;;;11126596;26;20244;-78
2024/04/14 10:04:46;;;;;;;1.10;1.10;;;23.00;87.70;;;;;;11142062;26;20249;-78
2024/04/14 10:09:50;;;;;;;0.70;0.70;;;23.30;87.40;;;;;;11145901;26;20688;-78
2024/04/14 10:14:57;;;;;;;0.90;0.90;;;23.50;86.90;;;;;;11138457;26;20244;-79
2024/04/14 10:20:05;;;;;;;0.80;0.80;;;23.60;86.40;;;;;;11113406;26;20251;-78
2024/04/14 10:25:21;;;;;;;1.00;1.00;;;23.50;85.20;;;;;;11133781;26;20236;-78
2024/04/14 10:30:26;;;;;;;0.90;0.90;;;23.30;85.90;;;;;;11133610;26;20325;-80
2024/04/14 10:35:33;;;;;;;1.10;1.10;;;23.10;87.10;;;;;;11116510;26;20244;-80
2024/04/14 10:40:40;;;;;;;1.10;1.10;;;23.00;87.10;;;;;;11139731;26;20244;-78
2024/04/14 10:45:44;;;;;;;1.00;1.00;;;22.80;88.30;;;;;;11160663;26;20247;-79
2024/04/14 10:50:50;;;;;;;1.00;1.00;;;22.70;89.00;;;;;;11135656;26;20306;-78
2024/04/14 10:55:54;;;;;;;0.90;0.90;;;22.70;88.60;;;;;;11119621;26;20247;-77
2024/04/14 11:00:58;;;;;;;0.90;0.90;;;22.70;89.20;;;;;;11158415;26;20772;-78
2024/04/14 11:06:05;;;;;;;1.00;1.00;;;22.60;89.40;;;;;;11121671;26;20713;-78
2024/04/14 11:11:10;;;;;;;0.80;0.80;;;22.60;89.40;;;;;;11125503;26;20290;-80
2024/04/14 11:16:14;;;;;;;0.90;0.90;;;22.50;89.50;;;;;;11114695;26;20277;-79
2024/04/14 11:21:24;;;;;;;1.00;1.00;;;22.50;89.90;;;;;;11128626;26;20239;-77
2024/04/14 11:26:29;;;;;;;1.30;1.30;;;22.50;89.60;;;;;;11117785;26;20236;-77
2024/04/14 11:31:33;;;;;;;1.10;1.10;;;22.40;90.00;;;;;;11114644;26;20232;-77
2024/04/14 11:36:41;;;;;;;1.17;1.17;;;22.50;89.90;;;;;;11144100;26;20243;-78
2024/04/14 11:41:46;;;;;;;1.37;1.37;;;22.50;89.80;;;;;;11137807;26;20325;-77
2024/04/14 11:46:53;;;;;;;1.00;1.00;;;22.40;89.70;;;;;;11113771;26;20572;-77
2024/04/14 11:52:01;;;;;;;0.77;0.77;;;22.40;89.80;;;;;;11116177;26;20260;-79
2024/04/14 11:57:05;;;;;;;0.90;0.90;;;22.40;89.40;;;;;;11105188;26;20236;-79
2024/04/14 12:02:09;;;;;;;1.20;1.20;;;22.40;90.10;;;;;;11112485;26;20244;-78
2024/04/14 12:07:16;;;;;;;1.27;1.27;;;22.40;89.40;;;;;;11118617;26;20320;-77
2024/04/14 12:12:20;;;;;;;0.90;0.90;;;22.40;88.90;;;;;;11109541;26;20664;-75
2024/04/14 12:17:24;;;;;;;0.87;0.87;;;22.40;89.80;;;;;;11140953;26;20231;-78
2024/04/14 12:22:30;;;;;;;1.10;1.10;;;22.40;90.00;;;;;;11117960;26;20236;-78
2024/04/14 12:27:35;;;;;;;0.70;0.70;;;22.50;88.60;;;;;;11130216;26;20265;-79
2024/04/14 12:32:41;;;;;;;0.80;0.80;;;22.50;90.00;;;;;;11114343;26;20237;-81
2024/04/14 12:37:48;;;;;;;1.00;1.00;;;22.50;89.60;;;;;;11137389;26;20244;-78
2024/04/14 12:42:53;;;;;;;1.40;1.40;;;22.60;88.50;;;;;;11136121;26;20230;-79
2024/04/14 12:47:57;;;;;;;1.30;1.30;;;22.60;88.10;;;;;;11135649;26;20666;-78
2024/04/14 12:53:03;;;;;;;1.40;1.40;;;22.60;88.50;;;;;;11111360;26;20240;-80
2024/04/14 12:58:07;;;;;;;1.00;1.00;;;22.50;89.10;;;;;;11121720;26;20794;-79
2024/04/14 13:03:11;;;;;;;1.10;1.10;;;22.50;85.90;;;;;;11134976;26;20324;-77
2024/04/14 13:08:18;;;;;;;1.10;1.10;;;22.50;87.00;;;;;;11140091;26;20232;-79
2024/04/14 13:13:22;;;;;;;1.03;1.03;;;22.40;87.00;;;;;;11146425;26;20237;-79
2024/04/14 13:18:26;;;;;;;1.00;1.00;;;22.40;86.00;;;;;;11116534;26;20240;-79
2024/04/14 13:23:33;;;;;;;1.10;1.10;;;22.40;86.40;;;;;;11147362;26;20638;-79
2024/04/14 13:28:39;;;;;;;0.90;0.90;;;22.40;86.00;;;;;;11165690;26;20298;-82
2024/04/14 13:33:43;;;;;;;1.10;1.10;;;22.40;84.70;;;;;;11148625;26;20966;-81
2024/04/14 13:38:50;;;;;;;0.90;0.90;;;22.40;85.40;;;;;;11131360;26;20228;-80
2024/04/14 13:43:56;;;;;;;0.80;0.80;;;22.50;85.80;;;;;;11150535;26;20231;-79
2024/04/14 13:49:00;;;;;;;0.60;0.60;;;22.50;85.10;;;;;;11173741;26;20254;-80
2024/04/14 13:54:07;;;;;;;0.80;0.80;;;22.60;84.70;;;;;;11140990;26;20321;-81
2024/04/14 13:59:11;;;;;;;0.93;0.93;;;22.70;83.80;;;;;;11156411;26;20236;-80
2024/04/14 14:04:15;;;;;;;0.93;0.93;;;22.70;84.20;;;;;;11170796;26;20780;-79
2024/04/14 14:09:22;;;;;;;0.90;0.90;;;22.70;84.20;;;;;;11161770;26;20258;-81
2024/04/14 14:14:27;;;;;;;0.60;0.60;;;22.60;84.70;;;;;;11164202;26;20253;-81
2024/04/14 14:19:31;;;;;;;0.70;0.70;;;22.60;84.00;;;;;;11145086;26;20722;-81
2024/04/14 14:24:37;;;;;;;0.70;0.70;;;22.60;84.70;;;;;;11145040;26;20247;-79
2024/04/14 14:29:41;;;;;;;0.80;0.80;;;22.50;85.10;;;;;;11131963;26;20234;-79
2024/04/14 14:40:09;;;;;;;0.70;0.70;;;22.60;84.50;;;;;;11151495;26;20248;-77
2024/04/14 14:45:13;;;;;;;0.60;0.60;;;22.60;84.90;;;;;;11155568;26;20279;-83
2024/04/14 14:50:18;;;;;;;0.77;0.77;;;22.50;84.80;;;;;;11147623;26;20299;-81
2024/04/14 14:55:25;;;;;;;0.60;0.60;;;22.50;84.50;;;;;;11156503;26;20248;-81
2024/04/14 15:00:29;;;;;;;0.60;0.60;;;22.50;83.20;;;;;;11153166;26;20239;-80
2024/04/14 15:05:35;;;;;;;0.70;0.70;;;22.50;83.50;;;;;;11175457;26;20248;-79
2024/04/14 15:10:46;;;;;;;0.90;0.90;;;22.50;84.20;;;;;;11149836;26;20309;-80
2024/04/14 15:15:53;;;;;;;0.83;0.83;;;22.40;84.30;;;;;;11243812;21;20666;-78
2024/04/14 15:20:57;;;;;;;0.90;0.90;;;22.40;85.60;;;;;;11292765;26;20714;-79
2024/04/14 15:26:04;;;;;;;0.80;0.80;;;22.30;84.60;;;;;;11314020;26;20375;-78
2024/04/14 15:31:09;;;;;;;0.83;0.83;;;22.30;85.90;;;;;;11298328;26;20229;-79
2024/04/14 15:36:14;;;;;;;0.80;0.80;;;22.20;86.30;;;;;;11285776;26;20660;-79
2024/04/14 15:41:21;;;;;;;0.60;0.60;;;22.20;85.80;;;;;;11299715;26;20633;-78
2024/04/14 15:46:25;;;;;;;0.60;0.60;;;22.20;85.70;;;;;;11326013;26;20246;-79
2024/04/14 15:51:29;;;;;;;0.80;0.80;;;22.20;86.50;;;;;;11298239;26;20714;-79
2024/04/14 15:56:35;;;;;;;0.70;0.70;;;22.20;86.30;;;;;;11287383;26;20241;-79
2024/04/14 16:01:39;;;;;;;0.70;0.70;;;22.20;86.30;;;;;;11277916;26;20241;-79
2024/04/14 16:06:43;;;;;;;0.83;0.83;;;22.20;86.20;;;;;;11288707;26;20325;-79
2024/04/14 16:11:50;;;;;;;0.80;0.80;;;22.20;86.20;;;;;;11285433;26;20574;-79
2024/04/14 16:16:54;;;;;;;0.70;0.70;;;22.10;86.60;;;;;;11288005;26;20267;-79
2024/04/14 16:21:58;;;;;;;0.60;0.60;;;22.10;87.10;;;;;;11285557;26;20264;-79
2024/04/14 16:27:05;;;;;;;0.63;0.63;;;22.00;88.30;;;;;;11296548;26;20276;-79
2024/04/14 16:32:09;;;;;;;0.53;0.53;;;21.80;89.60;;;;;;11282955;26;20233;-79
2024/04/14 16:37:13;;;;;;;0.50;0.50;;;21.70;90.00;;;;;;11288030;26;20330;-79
2024/04/14 16:42:20;;;;;;;0.57;0.57;;;21.60;90.60;;;;;;11279975;26;20330;-79
2024/04/14 16:47:25;;;;;;;0.60;0.60;;;21.50;90.60;;;;;;11285165;26;20233;-79
2024/04/14 16:52:29;;;;;;;0.50;0.50;;;21.40;91.10;;;;;;11297816;26;20261;-78
2024/04/14 16:57:35;;;;;;;0.60;0.60;;;21.30;90.70;;;;;;11310526;26;20284;-78
2024/04/14 17:02:39;;;;;;;0.80;0.80;;;21.30;90.80;;;;;;11284434;26;20226;-78
2024/04/14 17:07:43;;;;;;;0.50;0.50;;;21.20;91.00;;;;;;11286037;26;20562;-78
2024/04/14 17:12:50;;;;;;;0.67;0.67;;;21.10;91.20;;;;;;11303346;26;20229;-79
2024/04/14 17:17:54;;;;;;;0.70;0.70;;;21.00;91.00;;;;;;11293772;26;20260;-79
2024/04/14 17:22:58;;;;;;;0.60;0.60;;;21.00;91.10;;;;;;11295995;26;20810;-78
2024/04/14 17:28:05;;;;;;;0.50;0.50;;;20.80;91.40;;;;;;11294273;26;20327;-77
2024/04/14 17:33:09;;;;;;;0.70;0.70;;;20.70;91.80;;;;;;11298011;26;20259;-78
2024/04/14 17:38:14;;;;;;;0.50;0.50;;;20.60;92.50;;;;;;11283528;26;20245;-79
2024/04/14 17:43:20;;;;;;;0.50;0.50;;;20.60;92.10;;;;;;11297285;26;20237;-78
2024/04/14 17:48:24;;;;;;;0.50;0.50;;;20.50;92.50;;;;;;11286504;26;20342;-78
2024/04/14 17:53:30;;;;;;;0.60;0.60;;;20.30;92.40;;;;;;11293946;26;20260;-78
2024/04/14 17:58:37;;;;;;;0.60;0.60;;;20.30;92.10;;;;;;11294045;26;20349;-78
2024/04/14 18:03:41;;;;;;;0.60;0.60;;;20.20;92.40;;;;;;11292544;26;20229;-79
2024/04/14 18:08:45;;;;;;;0.60;0.60;;;20.10;93.20;;;;;;11287473;26;20267;-79
2024/04/14 18:13:51;;;;;;;0.50;0.50;;;20.00;93.20;;;;;;11291223;26;20233;-79
2024/04/14 18:18:55;;;;;;;0.60;0.60;;;19.90;93.00;;;;;;11292075;26;20240;-78
2024/04/14 18:24:00;;;;;;;0.73;0.73;;;19.80;93.30;;;;;;11294592;26;20330;-79
2024/04/14 18:29:07;;;;;;;0.70;0.70;;;19.80;93.10;;;;;;11295307;26;20245;-78
2024/04/14 18:34:11;;;;;;;0.50;0.50;;;19.70;93.00;;;;;;11284707;26;20237;-78
2024/04/14 18:39:15;;;;;;;0.50;0.50;;;19.60;92.90;;;;;;11294531;26;20244;-78
2024/04/14 18:44:21;;;;;;;0.60;0.60;;;19.70;92.40;;;;;;11284818;26;20307;-78
2024/04/14 18:49:25;;;;;;;0.50;0.50;;;19.80;92.30;;;;;;11312740;26;20237;-78
2024/04/14 18:54:29;;;;;;;0.40;0.40;;;19.80;92.60;;;;;;11349768;26;20719;-78
2024/04/14 18:59:36;;;;;;;0.60;0.60;;;19.80;92.70;;;;;;11334708;26;20229;-78
2024/04/14 19:04:41;;;;;;;0.60;0.60;;;19.80;92.70;;;;;;11311460;26;20245;-78
2024/04/14 19:09:45;;;;;;;0.60;0.60;;;19.70;92.60;;;;;;11331780;26;20237;-78
2024/04/14 19:14:51;;;;;;;0.50;0.50;;;19.70;92.30;;;;;;11347957;26;20237;-78
2024/04/14 19:19:56;;;;;;;0.53;0.53;;;19.60;92.40;;;;;;11335304;26;20237;-78
2024/04/14 19:25:00;;;;;;;0.70;0.70;;;19.50;92.00;;;;;;11321130;26;20245;-77
2024/04/14 19:30:07;;;;;;;0.70;0.70;;;19.50;92.00;;;;;;11316988;26;20263;-77
2024/04/14 19:35:11;;;;;;;0.60;0.60;;;19.40;92.00;;;;;;11340499;26;20240;-77
2024/04/14 19:40:16;;;;;;;0.70;0.70;;;19.30;92.10;;;;;;11312043;26;20258;-80
2024/04/14 19:45:22;;;;;;;0.60;0.60;;;19.20;92.10;;;;;;11341494;26;20654;-79
2024/04/14 19:50:27;;;;;;;0.60;0.60;;;19.10;92.00;;;;;;11351269;26;20240;-79
2024/04/14 19:55:31;;;;;;;0.80;0.80;;;19.10;92.00;;;;;;11336329;26;20240;-78
2024/04/14 20:00:41;;;;;;;0.60;0.60;;;19.00;91.90;;;;;;11319913;26;20234;-79
2024/04/14 20:05:45;;;;;;;0.60;0.60;;;18.90;92.00;;;;;;11342999;26;20725;-80
2024/04/14 20:10:49;;;;;;;0.57;0.57;;;18.90;91.90;;;;;;11340930;26;20237;-79
2024/04/14 20:15:56;;;;;;;0.60;0.60;;;18.80;92.30;;;;;;11331897;26;21045;-78
2024/04/14 20:21:00;;;;;;;0.60;0.60;;;18.70;91.90;;;;;;11332632;26;20236;-79
2024/04/14 20:26:05;;;;;;;0.60;0.60;;;18.70;92.00;;;;;;11322336;26;20236;-79
2024/04/14 20:31:11;;;;;;;0.70;0.70;;;18.60;92.00;;;;;;11348507;26;20229;-78
2024/04/14 20:36:15;;;;;;;0.50;0.50;;;18.50;92.00;;;;;;11354127;26;20246;-79
2024/04/14 20:41:19;;;;;;;0.60;0.60;;;18.50;91.90;;;;;;11317224;26;20270;-79
2024/04/14 20:46:26;;;;;;;0.70;0.70;;;18.50;91.90;;;;;;11344330;26;20349;-78
2024/04/14 20:51:30;;;;;;;0.60;0.60;;;18.40;92.00;;;;;;11353911;26;20236;-78
2024/04/14 20:56:34;;;;;;;0.70;0.70;;;18.40;92.10;;;;;;11320070;26;20283;-78
2024/04/14 21:01:41;;;;;;;0.80;0.80;;;18.30;92.10;;;;;;11340041;26;20330;-77
2024/04/14 21:06:47;;;;;;;0.70;0.70;;;18.20;92.10;;;;;;11312364;26;20328;-78
2024/04/14 21:11:51;;;;;;;0.70;0.70;;;18.20;92.30;;;;;;11340102;26;20237;-78
2024/04/14 21:16:57;;;;;;;0.80;0.80;;;18.10;92.30;;;;;;11344369;26;20244;-77
2024/04/14 21:22:01;;;;;;;0.70;0.70;;;18.10;92.40;;;;;;11343238;26;20229;-77
2024/04/14 21:27:06;;;;;;;0.73;0.73;;;18.10;92.60;;;;;;11299870;26;20325;-78
2024/04/14 21:32:12;;;;;;;0.70;0.70;;;18.00;92.60;;;;;;11316569;26;20818;-78
2024/04/14 21:37:17;;;;;;;0.90;0.90;;;18.00;92.70;;;;;;11349097;26;20241;-78
2024/04/14 21:42:21;;;;;;;0.70;0.70;;;18.00;92.80;;;;;;11338181;26;20237;-77
2024/04/14 21:47:27;;;;;;;0.70;0.70;;;18.00;92.80;;;;;;11349015;26;20245;-77
2024/04/14 21:52:32;;;;;;;0.90;0.90;;;17.90;92.90;;;;;;11353453;26;20565;-78
2024/04/14 21:57:36;;;;;;;0.90;0.90;;;18.00;92.90;;;;;;11299015;26;20349;-78
2024/04/14 22:02:42;;;;;;;0.80;0.80;;;17.90;92.90;;;;;;11337251;26;20330;-77
2024/04/14 22:07:46;;;;;;;0.90;0.90;;;17.90;93.10;;;;;;11341535;26;20241;-77
2024/04/14 22:12:50;;;;;;;1.00;1.00;;;17.90;93.20;;;;;;11340260;26;20731;-77
2024/04/14 22:17:57;;;;;;;0.80;0.80;;;17.80;93.20;;;;;;11342469;26;20312;-77
2024/04/14 22:23:01;;;;;;;0.80;0.80;;;17.80;93.30;;;;;;11341502;26;20630;-78
2024/04/14 22:28:05;;;;;;;0.90;0.90;;;17.80;93.30;;;;;;11288616;26;20245;-77
2024/04/14 22:33:13;;;;;;;0.80;0.80;;;17.80;93.40;;;;;;11331300;26;20247;-77
2024/04/14 22:38:17;;;;;;;1.00;1.00;;;17.80;93.30;;;;;;11330030;26;20247;-78
2024/04/14 22:43:21;;;;;;;0.80;0.80;;;17.80;93.30;;;;;;11307025;26;20239;-77
2024/04/14 22:48:28;;;;;;;0.80;0.80;;;17.80;93.20;;;;;;11317547;26;20233;-78
2024/04/14 22:53:32;;;;;;;0.90;0.90;;;17.80;93.30;;;;;;11339452;26;20230;-77
2024/04/14 22:58:36;;;;;;;0.80;0.80;;;17.80;93.50;;;;;;11324841;26;20706;-77
2024/04/14 23:03:42;;;;;;;0.83;0.83;;;17.80;93.60;;;;;;11342189;26;20280;-78
2024/04/14 23:08:47;;;;;;;0.70;0.70;;;17.80;93.80;;;;;;11332420;26;20229;-78
2024/04/14 23:13:51;;;;;;;0.80;0.80;;;17.90;93.90;;;;;;11284438;26;20324;-77
2024/04/14 23:19:00;;;;;;;0.80;0.80;;;17.90;94.10;;;;;;11338277;26;20267;-78
2024/04/14 23:24:04;;;;;;;1.00;1.00;;;17.90;94.10;;;;;;11317756;26;20230;-78
2024/04/14 23:29:09;;;;;;;1.00;1.00;;;17.80;94.20;;;;;;11334540;26;20702;-77
2024/04/14 23:34:16;;;;;;;0.60;0.60;;;17.90;94.30;;;;;;11345027;26;20240;-76
2024/04/14 23:39:20;;;;;;;0.70;0.70;;;17.80;94.30;;;;;;11318454;26;20241;-77
2024/04/14 23:44:27;;;;;;;0.90;0.90;;;17.80;94.40;;;;;;11351195;26;20263;-78
2024/04/14 23:49:34;;;;;;;0.80;0.80;;;17.80;94.40;;;;;;11343270;26;20270;-78
2024/04/14 23:54:38;;;;;;;0.70;0.70;;;17.80;94.50;;;;;;11347317;26;20264;-78
2024/04/14 23:59:42;;;;;;;0.80;0.80;;;17.80;94.50;;;;;;11325253;26;20644;-78
